Time;durP1;ratioP1;P1;durP2;ratioP2;P2;SDS_P1;SDS_P2;PMS_P1;PMS_P2;Temp;Humidity;BMP_temperature;BMP_pressure;BME280_temperature;BME280_humidity;BME280_pressure;Samples;Min_cycle;Max_cycle;Signal;HPM_P1;HPM_P2
2023/04/16 00:01:23;;;;;;;48.83;15.57;;;8.10;99.90;;;;;;4042037;29;20056;-90
2023/04/16 00:03:25;;;;;;;45.38;15.82;;;8.20;99.90;;;;;;4043636;29;20061;-90
2023/04/16 00:05:27;;;;;;;43.38;14.70;;;8.10;99.90;;;;;;4026430;29;20049;-90
2023/04/16 00:07:27;;;;;;;53.47;15.93;;;8.10;99.90;;;;;;4057781;29;20124;-90
2023/04/16 00:09:29;;;;;;;49.90;17.08;;;8.20;99.90;;;;;;4027353;29;20052;-90
2023/04/16 00:11:30;;;;;;;54.33;16.40;;;8.20;99.90;;;;;;4011707;29;20100;-90
2023/04/16 00:13:32;;;;;;;51.88;17.23;;;8.20;99.90;;;;;;4042355;29;20445;-91
2023/04/16 00:15:33;;;;;;;51.65;16.85;;;8.20;99.90;;;;;;4010371;29;20065;-90
2023/04/16 00:17:35;;;;;;;48.60;17.02;;;8.20;99.90;;;;;;4026964;29;20029;-90
2023/04/16 00:19:38;;;;;;;54.90;17.48;;;8.40;99.90;;;;;;4011723;29;20128;-90
2023/04/16 00:21:40;;;;;;;54.75;19.67;;;8.20;99.90;;;;;;4027116;29;20053;-90
2023/04/16 00:23:41;;;;;;;58.40;18.77;;;8.20;99.90;;;;;;4011154;29;20042;-90
2023/04/16 00:25:43;;;;;;;48.92;17.23;;;8.30;99.90;;;;;;4025585;29;20086;-91
2023/04/16 00:27:46;;;;;;;54.97;18.20;;;8.30;99.90;;;;;;4027535;29;20060;-91
2023/04/16 00:29:48;;;;;;;52.38;16.80;;;8.30;99.90;;;;;;4010369;29;20049;-91
2023/04/16 00:31:50;;;;;;;47.55;16.58;;;8.30;99.90;;;;;;4026573;29;20149;-90
2023/04/16 00:33:51;;;;;;;38.67;17.48;;;8.20;99.90;;;;;;4025873;29;20091;-91
2023/04/16 00:35:52;;;;;;;50.55;18.75;;;8.50;99.90;;;;;;4009911;29;20075;-90
2023/04/16 00:37:54;;;;;;;54.67;18.77;;;8.30;99.90;;;;;;4026589;29;20060;-91
2023/04/16 00:39:56;;;;;;;51.55;18.70;;;8.20;99.90;;;;;;4040370;29;20140;-90
2023/04/16 00:42:03;;;;;;;38.72;17.20;;;8.20;99.90;;;;;;4025532;29;20041;-90
2023/04/16 00:44:03;;;;;;;52.38;17.98;;;8.30;99.90;;;;;;4009831;29;20076;-91
2023/04/16 00:46:07;;;;;;;45.25;19.70;;;8.30;99.90;;;;;;4008428;29;20042;-90
2023/04/16 00:48:08;;;;;;;51.53;17.30;;;8.20;99.90;;;;;;4010038;29;20053;-90
2023/04/16 00:50:10;;;;;;;51.42;19.02;;;8.20;99.90;;;;;;4026268;29;20046;-91
2023/04/16 00:52:12;;;;;;;48.35;16.45;;;8.20;99.90;;;;;;4026107;29;20064;-90
2023/04/16 00:54:14;;;;;;;45.03;17.88;;;8.20;99.90;;;;;;4025438;29;20045;-91
2023/04/16 00:56:15;;;;;;;45.92;17.40;;;8.30;99.90;;;;;;4042995;29;20025;-91
2023/04/16 00:58:16;;;;;;;50.65;17.08;;;8.30;99.90;;;;;;4009639;29;20046;-90
2023/04/16 01:00:17;;;;;;;47.55;18.70;;;8.20;99.90;;;;;;4010769;29;20507;-90
2023/04/16 01:02:18;;;;;;;42.35;16.27;;;8.30;99.90;;;;;;4010397;29;20045;-91
2023/04/16 01:04:20;;;;;;;41.65;16.13;;;8.20;99.90;;;;;;4012635;29;20050;-92
2023/04/16 01:06:21;;;;;;;43.30;16.02;;;8.20;99.90;;;;;;4026597;29;20142;-90
2023/04/16 01:08:24;;;;;;;36.85;15.95;;;8.30;99.90;;;;;;4025022;29;20045;-90
2023/04/16 01:10:25;;;;;;;37.45;15.25;;;8.20;99.90;;;;;;4011866;29;20059;-90
2023/04/16 01:12:29;;;;;;;31.50;13.65;;;8.20;99.90;;;;;;4024118;29;20411;-91
2023/04/16 01:14:34;;;;;;;37.05;13.50;;;8.10;99.90;;;;;;4042571;29;20069;-90
2023/04/16 01:16:36;;;;;;;57.20;14.25;;;8.20;99.90;;;;;;4025632;29;20056;-90
2023/04/16 01:18:38;;;;;;;53.22;15.38;;;8.20;99.90;;;;;;4040165;29;20056;-90
2023/04/16 01:20:40;;;;;;;58.35;14.75;;;8.30;99.90;;;;;;4025968;29;20076;-91
2023/04/16 01:22:41;;;;;;;41.30;14.18;;;8.20;99.90;;;;;;4019702;29;20499;-90
2023/04/16 01:24:42;;;;;;;38.50;14.35;;;8.20;99.90;;;;;;4026303;29;20049;-90
2023/04/16 01:26:43;;;;;;;38.67;14.43;;;8.10;99.90;;;;;;4027424;29;20110;-90
2023/04/16 01:28:45;;;;;;;43.45;14.45;;;8.10;99.90;;;;;;4026206;29;20591;-89
2023/04/16 01:30:46;;;;;;;38.83;15.32;;;8.20;99.90;;;;;;4026026;29;20140;-90
2023/04/16 01:32:47;;;;;;;43.22;14.43;;;8.20;99.90;;;;;;4025095;29;20439;-90
2023/04/16 01:34:48;;;;;;;45.97;14.23;;;8.60;99.90;;;;;;4026804;29;20057;-91
2023/04/16 01:36:50;;;;;;;42.05;15.60;;;8.30;99.90;;;;;;4040202;29;20073;-91
2023/04/16 01:38:51;;;;;;;41.47;15.00;;;8.20;99.90;;;;;;4020318;29;20117;-90
2023/04/16 01:40:58;;;;;;;46.70;15.35;;;8.10;99.90;;;;;;4021733;29;20049;-90
2023/04/16 01:43:00;;;;;;;43.50;16.20;;;8.30;99.90;;;;;;4025905;29;20045;-90
2023/04/16 01:45:02;;;;;;;38.28;16.00;;;8.50;99.90;;;;;;4051060;29;20059;-90
2023/04/16 01:47:03;;;;;;;37.22;14.68;;;8.10;99.90;;;;;;4043474;29;20522;-91
2023/04/16 01:49:06;;;;;;;42.08;15.65;;;8.10;99.90;;;;;;4041591;29;20443;-91
2023/04/16 01:51:08;;;;;;;39.33;15.55;;;8.20;99.90;;;;;;4016959;29;20050;-91
2023/04/16 01:53:10;;;;;;;42.08;17.23;;;8.20;99.90;;;;;;4028331;29;20515;-90
2023/04/16 01:55:11;;;;;;;38.83;15.27;;;6.80;99.90;;;;;;4044099;29;20055;-90
2023/04/16 01:57:12;;;;;;;42.88;15.98;;;8.40;99.90;;;;;;4033523;29;20093;-91
2023/04/16 01:59:14;;;;;;;55.13;18.80;;;8.20;99.90;;;;;;4043021;29;20610;-91
2023/04/16 02:01:16;;;;;;;50.92;18.52;;;8.20;99.90;;;;;;4042791;29;20131;-90
2023/04/16 02:03:17;;;;;;;53.70;18.58;;;8.20;99.90;;;;;;4043512;29;20040;-90
2023/04/16 02:05:18;;;;;;;59.28;20.10;;;8.30;99.90;;;;;;4027577;29;20042;-91
2023/04/16 02:07:20;;;;;;;61.42;20.00;;;8.20;99.90;;;;;;4028736;29;20491;-90
2023/04/16 02:09:20;;;;;;;55.78;19.95;;;8.20;99.90;;;;;;4042896;29;20085;-91
2023/04/16 02:11:21;;;;;;;49.63;18.05;;;8.20;99.90;;;;;;4027718;29;20061;-90
2023/04/16 02:13:24;;;;;;;63.83;17.38;;;8.20;99.90;;;;;;4043442;29;20053;-90
2023/04/16 02:15:25;;;;;;;56.13;18.50;;;8.30;99.90;;;;;;4058550;29;20604;-90
2023/04/16 02:17:27;;;;;;;52.15;18.90;;;8.70;99.90;;;;;;4043015;29;20116;-90
2023/04/16 02:19:29;;;;;;;59.35;18.45;;;7.80;99.90;;;;;;4026491;29;20057;-90
2023/04/16 02:21:30;;;;;;;55.17;18.75;;;8.20;99.90;;;;;;4027953;29;20094;-90
2023/04/16 02:23:33;;;;;;;62.83;19.45;;;8.30;99.90;;;;;;4027256;29;20053;-90
2023/04/16 02:25:42;;;;;;;73.13;19.55;;;8.30;99.90;;;;;;4029309;29;20045;-89
2023/04/16 02:27:43;;;;;;;64.65;18.13;;;8.30;99.90;;;;;;4028610;29;20045;-89
2023/04/16 02:29:44;;;;;;;60.83;19.05;;;8.40;99.90;;;;;;4026447;29;20143;-90
2023/04/16 02:31:46;;;;;;;56.75;20.75;;;8.40;99.90;;;;;;4028674;29;20057;-90
2023/04/16 02:33:47;;;;;;;62.42;19.58;;;8.20;99.90;;;;;;4042958;29;20055;-90
2023/04/16 02:35:47;;;;;;;60.92;17.52;;;8.20;99.90;;;;;;4023647;29;20050;-90
2023/04/16 02:37:48;;;;;;;63.10;18.30;;;8.40;99.90;;;;;;4017182;29;20126;-90
2023/04/16 02:39:49;;;;;;;64.88;17.10;;;8.30;99.90;;;;;;4042900;29;20152;-90
2023/04/16 02:41:52;;;;;;;50.65;16.55;;;8.20;99.90;;;;;;4044108;29;20073;-90
2023/04/16 02:43:52;;;;;;;54.00;17.40;;;8.20;99.90;;;;;;4026775;29;20129;-89
2023/04/16 02:45:53;;;;;;;60.63;16.50;;;8.20;99.90;;;;;;4044039;29;20052;-90
2023/04/16 02:47:56;;;;;;;58.38;18.30;;;7.10;99.90;;;;;;4027594;29;20109;-90
2023/04/16 02:49:58;;;;;;;46.35;15.70;;;8.20;99.90;;;;;;4043265;29;20536;-90
2023/04/16 02:52:00;;;;;;;59.53;16.35;;;8.20;99.90;;;;;;4028516;29;20056;-90
2023/04/16 02:54:01;;;;;;;48.40;17.67;;;8.20;99.90;;;;;;4025944;29;20049;-91
2023/04/16 02:56:02;;;;;;;55.30;16.35;;;8.20;99.90;;;;;;4024143;29;20032;-91
2023/04/16 02:58:04;;;;;;;62.33;17.33;;;8.10;99.90;;;;;;4027642;29;20046;-90
2023/04/16 03:00:06;;;;;;;50.53;16.38;;;8.30;99.90;;;;;;4029333;29;20103;-91
2023/04/16 03:02:07;;;;;;;49.50;16.42;;;8.20;99.90;;;;;;4043696;29;20048;-90
2023/04/16 03:04:10;;;;;;;58.67;18.77;;;8.20;99.90;;;;;;4044406;29;20068;-91
2023/04/16 03:06:15;;;;;;;57.40;17.33;;;8.10;99.90;;;;;;4028121;29;20042;-91
2023/04/16 03:08:16;;;;;;;64.20;17.88;;;8.20;99.90;;;;;;4028750;29;20049;-91
2023/04/16 03:10:18;;;;;;;55.95;16.70;;;8.10;99.90;;;;;;4043935;29;20029;-90
2023/04/16 03:12:19;;;;;;;66.63;17.42;;;8.20;99.90;;;;;;4042603;29;20490;-91
2023/04/16 03:14:22;;;;;;;58.90;16.48;;;8.10;99.90;;;;;;4028685;29;20070;-90
2023/04/16 03:16:23;;;;;;;57.08;16.17;;;8.10;99.90;;;;;;4028199;29;20057;-92
2023/04/16 03:18:24;;;;;;;61.10;18.92;;;8.20;99.90;;;;;;4027784;29;20046;-90
2023/04/16 03:20:25;;;;;;;55.38;16.05;;;8.10;99.90;;;;;;4043675;29;20077;-91
2023/04/16 03:22:29;;;;;;;55.97;16.95;;;8.00;99.90;;;;;;4042173;29;20056;-91
2023/04/16 03:24:31;;;;;;;59.67;15.00;;;8.00;99.90;;;;;;4021482;29;20070;-91
2023/04/16 03:26:33;;;;;;;57.70;17.17;;;8.00;99.90;;;;;;4042995;29;20045;-91
2023/04/16 03:28:35;;;;;;;58.20;16.98;;;8.00;99.90;;;;;;4043841;29;20049;-92
2023/04/16 03:30:37;;;;;;;62.30;16.92;;;8.00;99.90;;;;;;4043392;29;20145;-91
2023/04/16 03:32:40;;;;;;;52.92;16.35;;;8.00;99.90;;;;;;4027495;29;20048;-90
2023/04/16 03:34:47;;;;;;;51.65;15.82;;;8.00;99.90;;;;;;4027723;29;20445;-90
2023/04/16 03:36:48;;;;;;;47.42;16.60;;;6.50;99.90;;;;;;4042440;29;20660;-90
2023/04/16 03:38:50;;;;;;;51.83;14.80;;;7.30;99.90;;;;;;4043420;29;20049;-90
2023/04/16 03:40:51;;;;;;;68.20;16.45;;;8.00;99.90;;;;;;4051472;29;20052;-90
2023/04/16 03:42:53;;;;;;;50.65;14.85;;;8.10;99.90;;;;;;4028170;29;20051;-90
2023/04/16 03:44:54;;;;;;;54.63;17.00;;;8.10;99.90;;;;;;4027446;29;20053;-90
2023/04/16 03:46:55;;;;;;;58.53;16.85;;;8.10;99.90;;;;;;4027286;29;20132;-90
2023/04/16 03:48:56;;;;;;;57.03;16.10;;;8.10;99.90;;;;;;4027695;29;20113;-90
2023/04/16 03:50:57;;;;;;;52.05;13.55;;;8.20;99.90;;;;;;4045448;29;20052;-90
2023/04/16 03:52:58;;;;;;;67.25;17.48;;;8.00;99.90;;;;;;4047992;29;20131;-89
2023/04/16 03:55:05;;;;;;;50.92;15.25;;;8.00;99.90;;;;;;4027925;29;20049;-90
2023/04/16 03:57:08;;;;;;;60.85;14.90;;;8.10;99.90;;;;;;4036666;29;20033;-90
2023/04/16 03:59:09;;;;;;;75.00;17.95;;;8.20;99.90;;;;;;4039123;29;20106;-91
2023/04/16 04:01:10;;;;;;;68.22;16.38;;;8.10;99.90;;;;;;4039597;29;20034;-90
2023/04/16 04:03:12;;;;;;;64.75;15.52;;;8.20;99.90;;;;;;4054760;29;20044;-89
2023/04/16 04:05:14;;;;;;;52.45;15.32;;;8.70;99.90;;;;;;4038872;29;20079;-91
2023/04/16 04:07:16;;;;;;;57.90;15.55;;;8.00;99.90;;;;;;4046426;29;20073;-91
2023/04/16 04:09:16;;;;;;;45.92;14.13;;;8.00;99.90;;;;;;4027870;29;20068;-90
2023/04/16 04:11:17;;;;;;;50.85;15.07;;;8.00;99.90;;;;;;4041003;29;20069;-90
2023/04/16 04:13:18;;;;;;;55.00;14.30;;;8.60;99.90;;;;;;4027264;29;20081;-89
2023/04/16 04:15:19;;;;;;;65.20;15.98;;;8.10;99.90;;;;;;4042430;29;20056;-90
2023/04/16 04:17:20;;;;;;;53.80;15.93;;;6.60;99.90;;;;;;4041771;29;20052;-90
2023/04/16 04:19:22;;;;;;;62.08;16.08;;;8.20;99.90;;;;;;4027832;29;20045;-92
2023/04/16 04:21:28;;;;;;;46.70;14.48;;;8.00;99.90;;;;;;4039516;29;20053;-91
2023/04/16 04:23:33;;;;;;;56.72;15.07;;;8.10;99.90;;;;;;4062235;29;20147;-92
2023/04/16 04:25:35;;;;;;;54.25;15.70;;;8.00;99.90;;;;;;4048121;29;20060;-92
2023/04/16 04:27:37;;;;;;;48.95;13.43;;;8.10;99.90;;;;;;4018987;29;20050;-92
2023/04/16 04:29:38;;;;;;;61.90;13.63;;;8.30;99.90;;;;;;4035821;29;20049;-93
2023/04/16 04:31:39;;;;;;;55.22;14.10;;;8.00;99.90;;;;;;4033238;29;20082;-88
2023/04/16 04:33:41;;;;;;;65.28;14.40;;;7.90;99.90;;;;;;4027021;29;20046;-88
2023/04/16 04:35:43;;;;;;;40.67;14.43;;;8.10;99.90;;;;;;4056928;29;20509;-87
2023/04/16 04:37:44;;;;;;;42.60;14.73;;;7.90;99.90;;;;;;4025081;29;20096;-87
2023/04/16 04:39:46;;;;;;;57.40;15.45;;;7.90;99.90;;;;;;4029942;29;20409;-87
2023/04/16 04:41:48;;;;;;;40.65;14.75;;;8.00;99.90;;;;;;4025520;29;20049;-92
2023/04/16 04:43:49;;;;;;;62.67;14.93;;;8.00;99.90;;;;;;4026754;29;20136;-95
2023/04/16 04:45:59;;;;;;;50.78;15.10;;;8.00;99.90;;;;;;4034909;29;20435;-93
2023/04/16 04:48:06;;;;;;;54.70;14.05;;;8.40;99.90;;;;;;4051723;29;20049;-90
2023/04/16 04:50:08;;;;;;;47.83;13.82;;;7.90;99.90;;;;;;4031111;29;20138;-89
2023/04/16 04:52:10;;;;;;;47.45;13.23;;;7.90;99.90;;;;;;4025870;29;20040;-89
2023/04/16 04:54:11;;;;;;;49.55;13.85;;;7.90;99.90;;;;;;4012637;29;20052;-89
2023/04/16 04:56:19;;;;;;;55.78;14.05;;;7.90;99.90;;;;;;4053145;29;20517;-88
2023/04/16 04:58:20;;;;;;;62.33;13.75;;;7.90;99.90;;;;;;4027065;29;20132;-89
2023/04/16 05:00:21;;;;;;;45.28;12.55;;;7.80;99.90;;;;;;4048903;29;20048;-89
2023/04/16 05:02:25;;;;;;;59.58;13.77;;;7.80;99.90;;;;;;4052065;29;20107;-90
2023/04/16 05:04:31;;;;;;;54.75;13.95;;;7.40;99.90;;;;;;4042117;29;20059;-89
2023/04/16 05:06:38;;;;;;;48.50;12.73;;;7.80;99.90;;;;;;4042454;29;20510;-89
2023/04/16 05:08:46;;;;;;;48.65;13.27;;;7.90;99.90;;;;;;4021555;29;20055;-89
2023/04/16 05:10:47;;;;;;;52.83;14.80;;;7.90;99.90;;;;;;4041833;29;20053;-89
2023/04/16 05:12:48;;;;;;;44.00;12.82;;;7.90;99.90;;;;;;4042365;29;20065;-89
2023/04/16 05:14:49;;;;;;;59.63;14.20;;;7.90;99.90;;;;;;4041321;29;20049;-89
2023/04/16 05:16:50;;;;;;;44.47;12.52;;;7.90;99.90;;;;;;4027260;29;20089;-89
2023/04/16 05:18:58;;;;;;;46.50;13.35;;;7.90;99.90;;;;;;4032083;29;20060;-89
2023/04/16 05:20:59;;;;;;;48.85;13.40;;;7.90;99.90;;;;;;4043034;29;20052;-89
2023/04/16 05:23:00;;;;;;;48.58;12.45;;;7.90;99.90;;;;;;4029324;29;20081;-90
2023/04/16 05:25:02;;;;;;;39.95;12.00;;;7.90;99.90;;;;;;4028899;29;20558;-89
2023/04/16 05:27:03;;;;;;;45.70;12.38;;;7.90;99.90;;;;;;4045686;29;20049;-89
2023/04/16 05:29:05;;;;;;;42.42;12.32;;;7.90;99.90;;;;;;4045015;29;20056;-89
2023/04/16 05:31:08;;;;;;;47.67;12.73;;;7.80;99.90;;;;;;4030772;29;20505;-89
2023/04/16 05:33:35;;;;;;;51.28;12.25;;;7.80;99.90;;;;;;4048070;29;20490;-91
2023/04/16 05:35:37;;;;;;;39.22;11.55;;;7.80;99.90;;;;;;4030361;29;20046;-89
2023/04/16 05:37:39;;;;;;;55.05;13.10;;;8.30;99.90;;;;;;4027467;29;20060;-90
2023/04/16 05:39:40;;;;;;;70.57;13.52;;;7.90;99.90;;;;;;4060875;29;20303;-90
2023/04/16 05:41:41;;;;;;;90.72;14.63;;;8.00;99.90;;;;;;4028858;29;20518;-90
2023/04/16 05:43:43;;;;;;;60.17;13.10;;;8.00;99.90;;;;;;4030780;29;20100;-90
2023/04/16 05:45:44;;;;;;;62.97;12.90;;;7.90;99.90;;;;;;4062783;29;20052;-90
2023/04/16 05:47:45;;;;;;;49.30;11.77;;;8.00;99.90;;;;;;4062568;29;20523;-89
2023/04/16 05:49:46;;;;;;;66.38;12.43;;;7.90;99.90;;;;;;4047081;29;20052;-89
2023/04/16 05:51:47;;;;;;;47.67;12.05;;;7.90;99.90;;;;;;4045813;29;20048;-89
2023/04/16 05:53:48;;;;;;;77.55;13.20;;;6.60;99.90;;;;;;4029068;29;20056;-89
2023/04/16 05:55:50;;;;;;;38.40;11.65;;;7.90;99.90;;;;;;4039282;29;20041;-89
2023/04/16 05:57:51;;;;;;;45.33;13.38;;;7.90;99.90;;;;;;4045009;29;20061;-89
2023/04/16 05:59:53;;;;;;;48.47;12.65;;;6.90;99.90;;;;;;4029803;29;20049;-89
2023/04/16 06:01:54;;;;;;;41.03;11.52;;;8.00;99.90;;;;;;4032945;29;20061;-89
2023/04/16 06:03:57;;;;;;;40.45;12.55;;;8.50;99.90;;;;;;4048037;29;20029;-90
2023/04/16 06:05:58;;;;;;;52.50;14.00;;;7.90;99.90;;;;;;4032685;29;20109;-89
2023/04/16 06:08:00;;;;;;;44.35;12.50;;;8.00;99.90;;;;;;4033623;29;20049;-89
2023/04/16 06:10:00;;;;;;;43.13;11.68;;;8.20;99.90;;;;;;4032029;29;20052;-89
2023/04/16 06:12:01;;;;;;;47.00;12.93;;;8.10;99.90;;;;;;4043929;29;20080;-89
2023/04/16 06:14:03;;;;;;;39.97;11.25;;;8.20;99.90;;;;;;4042757;29;20049;-89
2023/04/16 06:16:05;;;;;;;49.83;12.18;;;8.20;99.90;;;;;;4043584;29;20506;-89
2023/04/16 06:18:06;;;;;;;52.00;12.63;;;8.20;99.90;;;;;;4043512;29;20049;-89
2023/04/16 06:20:07;;;;;;;47.05;12.18;;;8.30;99.90;;;;;;4027168;29;20091;-89
2023/04/16 06:22:09;;;;;;;53.40;13.27;;;8.30;99.90;;;;;;4028779;29;20133;-89
2023/04/16 06:24:10;;;;;;;37.08;11.00;;;8.30;99.90;;;;;;4041858;29;20442;-89
2023/04/16 06:26:11;;;;;;;43.83;12.07;;;8.70;99.90;;;;;;4037057;29;20044;-89
2023/04/16 06:28:11;;;;;;;43.58;10.30;;;8.30;99.90;;;;;;4026978;29;20128;-90
2023/04/16 06:30:13;;;;;;;44.80;11.25;;;8.40;99.90;;;;;;4043433;29;20545;-90
2023/04/16 06:32:16;;;;;;;54.03;12.45;;;8.70;99.90;;;;;;4027466;29;20045;-90
2023/04/16 06:34:16;;;;;;;42.05;11.93;;;8.40;99.90;;;;;;4041944;29;20048;-90
2023/04/16 06:36:19;;;;;;;38.17;11.32;;;8.50;99.90;;;;;;4043554;29;20055;-89
2023/04/16 06:38:26;;;;;;;48.47;11.20;;;8.60;99.90;;;;;;4042352;29;20052;-90
2023/04/16 06:40:28;;;;;;;45.30;10.98;;;8.70;99.90;;;;;;4043312;29;20037;-90
2023/04/16 06:42:30;;;;;;;40.28;10.55;;;8.70;99.90;;;;;;4042244;29;20514;-90
2023/04/16 06:44:32;;;;;;;37.58;11.32;;;9.10;99.90;;;;;;4043794;29;20079;-90
2023/04/16 06:46:32;;;;;;;57.50;12.88;;;8.90;99.90;;;;;;4043407;29;20025;-90
2023/04/16 06:48:33;;;;;;;42.75;11.88;;;9.00;99.90;;;;;;4042663;29;20492;-91
2023/04/16 06:50:35;;;;;;;40.90;11.43;;;9.10;99.90;;;;;;4027948;29;20052;-90
2023/04/16 06:52:36;;;;;;;46.10;12.80;;;9.10;99.90;;;;;;4041791;29;20045;-88
2023/04/16 06:54:43;;;;;;;42.03;12.10;;;8.70;99.90;;;;;;4043145;29;20098;-90
2023/04/16 06:56:44;;;;;;;45.50;11.50;;;9.20;99.90;;;;;;4042402;29;20108;-90
2023/04/16 06:58:45;;;;;;;43.70;11.68;;;9.20;99.90;;;;;;4042980;29;20056;-90
2023/04/16 07:00:47;;;;;;;41.15;11.23;;;9.20;99.90;;;;;;4026925;29;20049;-90
2023/04/16 07:02:51;;;;;;;48.35;12.70;;;9.20;99.90;;;;;;4040710;29;20056;-87
2023/04/16 07:04:51;;;;;;;33.05;10.75;;;9.30;99.90;;;;;;4042530;29;20108;-89
2023/04/16 07:06:53;;;;;;;38.88;10.68;;;9.40;99.90;;;;;;4040445;29;20104;-89
2023/04/16 07:08:55;;;;;;;36.45;10.82;;;9.50;99.90;;;;;;4057940;29;20045;-88
2023/04/16 07:10:56;;;;;;;39.05;11.38;;;9.50;99.90;;;;;;4056697;29;20051;-89
2023/04/16 07:13:00;;;;;;;35.53;11.30;;;9.60;99.90;;;;;;4057072;29;20509;-89
2023/04/16 07:15:01;;;;;;;36.05;11.40;;;9.60;99.90;;;;;;4041303;29;20053;-88
2023/04/16 07:17:29;;;;;;;43.90;12.27;;;9.70;99.90;;;;;;4061268;29;20100;-93
2023/04/16 07:19:40;;;;;;;39.80;13.43;;;10.00;99.90;;;;;;4032684;29;20049;-93
2023/04/16 07:21:49;;;;;;;35.70;11.90;;;9.70;99.90;;;;;;4018478;29;20038;-93
2023/04/16 07:23:58;;;;;;;49.33;12.43;;;9.70;99.90;;;;;;4041262;29;20028;-93
2023/04/16 07:25:59;;;;;;;38.47;14.10;;;9.70;99.90;;;;;;4035319;29;20053;-92
2023/04/16 07:28:00;;;;;;;42.45;12.75;;;9.70;99.90;;;;;;4042522;29;20080;-91
2023/04/16 07:30:08;;;;;;;33.92;10.60;;;9.70;99.90;;;;;;4040325;29;20045;-91
2023/04/16 07:32:10;;;;;;;39.13;12.05;;;9.70;99.90;;;;;;4043307;29;20045;-91
2023/04/16 07:34:12;;;;;;;41.95;12.35;;;10.90;99.90;;;;;;4026100;29;20128;-91
2023/04/16 07:36:14;;;;;;;34.65;11.32;;;9.70;99.90;;;;;;4026941;29;20511;-91
2023/04/16 07:38:15;;;;;;;42.85;11.63;;;9.80;99.90;;;;;;4027512;29;20053;-91
2023/04/16 07:40:17;;;;;;;45.15;12.57;;;9.90;99.90;;;;;;4025526;29;20065;-90
2023/04/16 07:42:18;;;;;;;42.75;12.70;;;9.90;99.90;;;;;;4026863;29;20033;-89
2023/04/16 07:44:19;;;;;;;42.05;11.18;;;9.90;99.90;;;;;;4032867;29;20059;-91
2023/04/16 07:46:22;;;;;;;40.70;12.18;;;9.90;99.90;;;;;;4026773;29;20108;-90
2023/04/16 07:48:23;;;;;;;42.38;13.43;;;9.30;99.90;;;;;;4040941;29;20511;-90
2023/04/16 07:50:24;;;;;;;40.42;10.68;;;10.20;99.90;;;;;;4025367;29;20129;-91
2023/04/16 07:52:28;;;;;;;43.05;11.57;;;10.20;99.90;;;;;;4059353;29;20043;-91
2023/04/16 07:54:30;;;;;;;43.40;12.40;;;10.00;99.90;;;;;;4040073;29;20100;-91
2023/04/16 07:56:31;;;;;;;37.08;12.15;;;11.30;99.90;;;;;;4023750;29;20038;-88
2023/04/16 07:58:32;;;;;;;31.48;10.18;;;10.00;99.90;;;;;;4056397;29;20100;-89
2023/04/16 08:00:33;;;;;;;36.25;10.95;;;10.00;99.90;;;;;;4040700;29;20055;-88
2023/04/16 08:02:34;;;;;;;32.08;10.30;;;10.10;99.90;;;;;;4039580;29;20045;-90
2023/04/16 08:04:35;;;;;;;40.15;12.15;;;10.30;99.90;;;;;;4041371;29;20045;-89
2023/04/16 08:06:36;;;;;;;33.72;10.85;;;10.10;99.90;;;;;;4037659;29;20430;-89
2023/04/16 08:08:43;;;;;;;37.58;11.13;;;10.20;99.90;;;;;;4052249;29;20072;-87
2023/04/16 08:10:43;;;;;;;34.45;10.30;;;10.30;99.90;;;;;;4057819;29;20036;-88
2023/04/16 08:12:45;;;;;;;26.42;11.10;;;10.60;99.90;;;;;;4056818;29;20037;-90
2023/04/16 08:14:47;;;;;;;36.95;9.63;;;10.40;99.90;;;;;;4026709;29;20486;-88
2023/04/16 08:16:48;;;;;;;43.53;12.95;;;10.40;99.90;;;;;;4057341;29;20040;-89
2023/04/16 08:18:49;;;;;;;33.03;10.50;;;10.50;99.90;;;;;;4037259;29;20079;-90
2023/04/16 08:20:50;;;;;;;34.85;9.35;;;10.60;99.90;;;;;;4026505;29;20050;-88
2023/04/16 08:22:53;;;;;;;38.92;11.63;;;10.80;99.90;;;;;;4024821;29;20093;-90
2023/04/16 08:24:54;;;;;;;37.20;10.85;;;10.80;99.90;;;;;;4026019;29;20042;-88
2023/04/16 08:26:54;;;;;;;28.45;9.80;;;10.90;99.90;;;;;;4057863;29;20080;-89
2023/04/16 08:28:55;;;;;;;34.58;11.75;;;11.10;99.90;;;;;;4026603;29;20061;-89
2023/04/16 08:30:58;;;;;;;32.80;10.20;;;11.20;99.90;;;;;;4040567;29;20102;-90
2023/04/16 08:33:05;;;;;;;27.30;9.52;;;11.30;99.90;;;;;;4040175;29;20053;-90
2023/04/16 08:35:06;;;;;;;30.35;10.15;;;11.40;99.90;;;;;;4039167;29;20049;-88
2023/04/16 08:37:08;;;;;;;39.17;10.40;;;11.50;99.90;;;;;;4042052;29;20431;-88
2023/04/16 08:39:09;;;;;;;33.15;11.88;;;11.70;99.90;;;;;;4040619;29;20057;-88
2023/04/16 08:41:12;;;;;;;28.63;10.25;;;11.70;99.90;;;;;;4056196;29;20045;-89
2023/04/16 08:43:15;;;;;;;28.95;9.60;;;11.90;99.90;;;;;;4057145;29;20044;-89
2023/04/16 08:45:18;;;;;;;26.20;9.70;;;11.90;99.90;;;;;;4062978;29;20052;-89
2023/04/16 08:47:22;;;;;;;35.40;12.82;;;12.00;99.90;;;;;;4031905;29;20463;-89
2023/04/16 08:49:25;;;;;;;32.50;10.50;;;12.10;99.90;;;;;;4013193;29;20049;-88
2023/04/16 08:51:32;;;;;;;30.30;10.77;;;12.20;99.90;;;;;;4042889;29;20049;-88
2023/04/16 08:53:47;;;;;;;28.23;10.27;;;12.20;99.90;;;;;;4048993;29;20101;-89
2023/04/16 08:55:51;;;;;;;31.35;11.65;;;12.30;99.90;;;;;;4051741;29;20045;-88
2023/04/16 08:57:56;;;;;;;33.53;10.85;;;12.30;99.90;;;;;;4034037;29;20441;-87
2023/04/16 08:59:57;;;;;;;27.63;9.65;;;12.40;99.90;;;;;;4066129;29;20045;-87
2023/04/16 09:02:00;;;;;;;36.10;9.98;;;12.40;99.90;;;;;;4055334;29;20432;-88
2023/04/16 09:04:03;;;;;;;28.50;9.60;;;12.20;99.90;;;;;;4028056;29;20061;-87
2023/04/16 09:06:06;;;;;;;28.73;9.73;;;12.60;99.90;;;;;;4031236;29;20057;-89
2023/04/16 09:08:08;;;;;;;35.70;10.85;;;12.70;99.90;;;;;;4030540;29;20570;-90
2023/04/16 09:10:09;;;;;;;23.52;9.32;;;12.70;99.90;;;;;;4060759;29;20056;-87
2023/04/16 09:12:10;;;;;;;22.23;9.10;;;12.70;99.90;;;;;;4042783;29;20053;-89
2023/04/16 09:14:11;;;;;;;24.52;10.15;;;12.40;99.90;;;;;;4029199;29;20136;-90
2023/04/16 09:16:14;;;;;;;29.08;9.40;;;12.90;99.90;;;;;;4044064;29;20048;-90
2023/04/16 09:18:20;;;;;;;31.15;10.05;;;13.00;99.90;;;;;;4042539;29;20061;-89
2023/04/16 09:20:20;;;;;;;27.42;9.90;;;13.00;99.90;;;;;;4038948;29;20041;-91
2023/04/16 09:22:22;;;;;;;33.15;11.30;;;13.10;99.90;;;;;;4028983;29;20071;-90
2023/04/16 09:24:24;;;;;;;31.23;9.40;;;13.20;99.90;;;;;;4031659;29;20102;-90
2023/04/16 09:26:25;;;;;;;29.88;9.60;;;;;;;;;;4023850;29;20049;-91
2023/04/16 09:28:47;;;;;;;26.33;9.77;;;;;;;;;;4060284;29;20092;-91
2023/04/16 09:30:48;;;;;;;28.92;10.35;;;;;;;;;;4040509;29;20478;-90
2023/04/16 09:32:50;;;;;;;21.55;9.35;;;;;;;;;;4043474;29;20506;-90
2023/04/16 09:34:58;;;;;;;24.65;9.70;;;13.20;99.90;;;;;;4060441;29;20049;-90
2023/04/16 09:37:16;;;;;;;28.70;9.80;;;13.40;99.90;;;;;;4044306;29;20028;-91
2023/04/16 09:39:18;;;;;;;25.52;8.52;;;13.40;99.90;;;;;;4043377;29;20592;-90
2023/04/16 09:41:26;;;;;;;24.38;8.45;;;13.40;99.90;;;;;;4042888;29;20052;-90
2023/04/16 09:43:26;;;;;;;30.23;9.70;;;13.50;99.90;;;;;;4045737;29;20249;-90
2023/04/16 09:45:31;;;;;;;29.65;9.52;;;;;;;;;;4011923;29;20416;-90
2023/04/16 09:47:45;;;;;;;29.02;9.82;;;13.50;99.90;;;;;;4028596;29;20066;-90
2023/04/16 09:49:48;;;;;;;24.17;8.10;;;13.50;99.90;;;;;;4041619;29;20538;-91
2023/04/16 09:51:53;;;;;;;27.35;9.35;;;;;;;;;;4023738;29;20049;-90
2023/04/16 09:53:56;;;;;;;27.08;8.68;;;13.60;99.90;;;;;;4044649;29;20083;-91
2023/04/16 09:56:00;;;;;;;21.75;9.18;;;15.20;99.90;;;;;;4037396;29;20041;-91
2023/04/16 09:58:01;;;;;;;22.15;9.20;;;13.80;99.90;;;;;;4023590;29;20491;-91
2023/04/16 10:00:06;;;;;;;24.67;9.15;;;;;;;;;;4042419;29;20498;-91
2023/04/16 10:02:08;;;;;;;30.35;10.27;;;;;;;;;;4042300;29;20085;-91
2023/04/16 10:04:09;;;;;;;30.83;9.52;;;;;;;;;;4021102;29;20089;-91
2023/04/16 10:06:15;;;;;;;34.25;9.68;;;;;;;;;;4044761;29;20059;-91
2023/04/16 10:08:17;;;;;;;25.38;8.85;;;;;;;;;;4058308;29;20108;-91
2023/04/16 10:10:19;;;;;;;26.45;9.00;;;;;;;;;;4028216;29;20446;-91
2023/04/16 10:12:20;;;;;;;27.60;9.95;;;13.80;99.90;;;;;;4056211;29;20060;-91
2023/04/16 10:14:21;;;;;;;26.92;9.18;;;14.30;99.90;;;;;;4030119;29;20048;-91
2023/04/16 10:16:22;;;;;;;29.80;9.73;;;14.40;99.90;;;;;;4026204;29;20046;-91
2023/04/16 10:18:28;;;;;;;24.02;9.43;;;14.40;99.90;;;;;;4041868;29;20052;-91
2023/04/16 10:20:29;;;;;;;22.17;8.73;;;14.50;99.90;;;;;;4041084;29;20137;-93
2023/04/16 10:22:30;;;;;;;27.33;9.40;;;14.50;99.90;;;;;;4043871;29;20144;-92
2023/04/16 10:24:33;;;;;;;23.52;9.48;;;14.70;99.90;;;;;;4036961;29;20049;-91
2023/04/16 10:26:40;;;;;;;25.13;9.85;;;15.50;99.90;;;;;;4064473;29;20055;-90
2023/04/16 10:28:41;;;;;;;33.65;10.02;;;14.80;99.90;;;;;;4028859;29;20029;-89
2023/04/16 10:30:51;;;;;;;27.83;10.48;;;14.90;99.90;;;;;;4058192;29;20413;-92
2023/04/16 10:32:52;;;;;;;26.30;9.60;;;14.90;99.90;;;;;;4043537;29;20485;-90